| time (UTC) | temp F | wind direction | speed knots | gust knots | rain 1hr in | rain 24hr in | rain mn in | humidity % | barometer mb |
| 20260505193100 | 76 | 219 | 2.6 | 7.0 | 0.00 | 0.00 | 0.00 | 47 | 1012.2 |
| 20260505191547 | 76 | 247 | 0.9 | 3.5 | 0.00 | 0.00 | 0.00 | 47 | 1012.5 |
| 20260505190012 | 76 | 191 | 1.7 | 6.1 | 0.00 | 0.00 | 0.00 | 47 | 1012.6 |
| 20260505184548 | 76 | 257 | 0.9 | 6.1 | 0.00 | 0.00 | 0.00 | 48 | 1012.9 |
| 20260505183049 | 75 | 117 | 1.7 | 10.4 | 0.00 | 0.00 | 0.00 | 48 | 1013.3 |
| 20260505181504 | 75 | 200 | 1.7 | 8.7 | 0.00 | 0.00 | 0.00 | 48 | 1013.6 |
| 20260505180056 | 75 | 203 | 3.5 | 10.4 | 0.00 | 0.00 | 0.00 | 47 | 1013.7 |
| 20260505174539 | 75 | 219 | 0.9 | 9.6 | 0.00 | 0.00 | 0.00 | 53 | 1013.9 |
| 20260505173058 | 75 | 283 | 4.3 | 11.3 | 0.00 | 0.00 | 0.00 | 52 | 1014.3 |
| 20260505171545 | 75 | 171 | 2.6 | 9.6 | 0.00 | 0.00 | 0.00 | 53 | 1014.5 |
| 20260505170026 | 74 | 219 | 1.7 | 10.4 | 0.00 | 0.00 | 0.00 | 54 | 1014.8 |
| 20260505164604 | 75 | 75 | 2.6 | 8.7 | 0.00 | 0.00 | 0.00 | 55 | 1015.0 |
| 20260505163037 | 75 | 242 | 0.9 | 7.8 | 0.00 | 0.00 | 0.00 | 55 | 1014.9 |
| 20260505161532 | 74 | 319 | 0.9 | 5.2 | 0.00 | 0.00 | 0.00 | 58 | 1015.1 |
| 20260505160104 | 74 | 210 | 1.7 | 5.2 | 0.00 | 0.00 | 0.00 | 57 | 1015.0 |
| 20260505153036 | 73 | 234 | 0.9 | 5.2 | 0.00 | 0.00 | 0.00 | 61 | 1014.9 |
| 20260505151610 | 71 | 212 | 0.0 | 6.1 | 0.00 | 0.00 | 0.00 | 63 | 1015.0 |
| 20260505124547 | 57 | 172 | 0.0 | 0.0 | 0.00 | 0.00 | 0.00 | 88 | 1014.9 |
| 20260505123037 | 55 | 161 | 0.0 | 0.0 | 0.00 | 0.00 | 0.00 | 90 | 1014.9 |
| 20260505121511 | 53 | 160 | 0.0 | 0.0 | 0.00 | 0.00 | 0.00 | 90 | 1015.0 |
| 20260505120055 | 52 | 160 | 0.0 | 0.0 | 0.00 | 0.00 | 0.00 | 90 | 1014.8 |
| 20260505114551 | 50 | 161 | 0.0 | 0.0 | 0.00 | 0.00 | 0.00 | 91 | 1014.6 |
| 20260505113025 | 49 | 160 | 0.0 | 0.0 | 0.00 | 0.00 | 0.00 | 90 | 1014.4 |
| 20260505111608 | 49 | 160 | 0.0 | 0.0 | 0.00 | 0.00 | 0.00 | 90 | 1014.1 |
| 20260505101511 | 51 | 162 | 0.0 | 0.0 | 0.00 | 0.00 | 0.00 | 86 | 1013.8 |
| 20260505100054 | 51 | 162 | 0.0 | 0.0 | 0.00 | 0.00 | 0.00 | 85 | 1013.9 |
| 20260505094541 | 52 | 162 | 0.0 | 0.0 | 0.00 | 0.00 | 0.00 | 86 | 1013.5 |
| 20260505093038 | 53 | 162 | 0.0 | 0.0 | 0.00 | 0.00 | 0.00 | 83 | 1013.7 |
| 20260505091520 | 54 | 162 | 0.0 | 0.0 | 0.00 | 0.00 | 0.00 | 82 | 1013.7 |
| 20260505090012 | 54 | 162 | 0.0 | 0.0 | 0.00 | 0.00 | 0.00 | 81 | 1013.6 |
| 20260505084549 | 54 | 124 | 0.0 | 0.0 | 0.00 | 0.00 | 0.00 | 80 | 1013.5 |
| 20260505083026 | 55 | 124 | 0.0 | 0.0 | 0.00 | 0.00 | 0.00 | 80 | 1013.5 |
| 20260505081555 | 56 | 124 | 0.0 | 0.0 | 0.00 | 0.00 | 0.00 | 77 | 1013.5 |
| 20260505080025 | 57 | 124 | 0.0 | 0.9 | 0.00 | 0.00 | 0.00 | 76 | 1013.4 |
| 20260505074529 | 57 | 182 | 0.0 | 0.0 | 0.00 | 0.00 | 0.00 | 77 | 1013.4 |
| 20260505073004 | 57 | 185 | 0.0 | 0.0 | 0.00 | 0.00 | 0.00 | 76 | 1013.5 |
| 20260505071549 | 57 | 181 | 0.0 | 0.0 | 0.00 | 0.00 | 0.00 | 76 | 1013.5 |
| 20260505070105 | 57 | 181 | 0.0 | 0.0 | 0.00 | 0.00 | 0.00 | 77 | 1013.6 |
| 20260505064557 | 57 | 181 | 0.0 | 0.0 | 0.00 | 0.00 | 0.00 | 78 | 1013.7 |
| 20260505063050 | 57 | 179 | 0.0 | 0.0 | 0.00 | 0.00 | 0.00 | 79 | 1013.6 |
| 20260505061536 | 56 | 179 | 0.0 | 0.0 | 0.00 | 0.00 | 0.00 | 79 | 1013.7 |
| 20260505060024 | 57 | 179 | 0.0 | 0.0 | 0.00 | 0.00 | 0.00 | 77 | 1013.6 |
| 20260505054557 | 59 | 179 | 0.0 | 0.0 | 0.00 | 0.00 | 0.00 | 75 | 1013.6 |
| 20260505053039 | 61 | 164 | 0.0 | 0.0 | 0.00 | 0.00 | 0.00 | 72 | 1013.5 |
| 20260505051517 | 61 | 345 | 0.0 | 0.9 | 0.00 | 0.00 | 0.00 | 72 | 1013.5 |
| 20260505050103 | 61 | 330 | 0.0 | 0.9 | 0.00 | 0.00 | 0.00 | 72 | 1013.3 |
| 20260505041538 | 56 | 210 | 0.0 | 0.0 | 0.00 | 0.00 | 0.00 | 81 | 1013.4 |
| 20260505040024 | 57 | 210 | 0.0 | 0.0 | 0.00 | 0.00 | 0.00 | 81 | 1013.4 |
| 20260505034513 | 57 | 210 | 0.0 | 0.0 | 0.00 | 0.00 | 0.00 | 81 | 1013.4 |
| 20260505033049 | 57 | 210 | 0.0 | 0.0 | 0.00 | 0.00 | 0.00 | 78 | 1013.4 |
| 20260505031552 | 58 | 210 | 0.0 | 0.0 | 0.00 | 0.00 | 0.00 | 77 | 1013.5 |
| 20260505030011 | 59 | 210 | 0.0 | 0.0 | 0.00 | 0.00 | 0.00 | 75 | 1013.5 |
| 20260505024607 | 60 | 210 | 0.0 | 0.0 | 0.00 | 0.00 | 0.00 | 73 | 1013.7 |
| 20260505023051 | 62 | 210 | 0.0 | 0.9 | 0.00 | 0.00 | 0.00 | 70 | 1013.6 |
| 20260505021539 | 64 | 210 | 0.0 | 0.0 | 0.00 | 0.00 | 0.00 | 67 | 1013.5 |
| 20260505020009 | 66 | 210 | 0.0 | 0.9 | 0.00 | 0.00 | 0.00 | 62 | 1013.5 |
| 20260505014553 | 67 | 217 | 0.0 | 0.9 | 0.00 | 0.00 | 0.00 | 61 | 1013.3 |
| 20260505013100 | 68 | 207 | 0.0 | 2.6 | 0.00 | 0.00 | 0.00 | 60 | 1013.3 |
| 20260505011539 | 68 | 204 | 0.0 | 2.6 | 0.00 | 0.00 | 0.00 | 59 | 1013.1 |
| 20260505010048 | 69 | 311 | 0.0 | 2.6 | 0.00 | 0.00 | 0.00 | 58 | 1013.2 |
| 20260505004537 | 69 | 207 | 0.0 | 1.7 | 0.00 | 0.00 | 0.00 | 60 | 1013.1 |
| 20260505003034 | 70 | 189 | 0.9 | 3.5 | 0.00 | 0.00 | 0.00 | 59 | 1012.9 |
| 20260505001507 | 71 | 219 | 0.0 | 2.6 | 0.00 | 0.00 | 0.00 | 58 | 1012.7 |
| 20260505000058 | 72 | 188 | 0.0 | 0.0 | 0.00 | 0.00 | 0.00 | 58 | 1012.6 |
| 20260504234549 | 73 | 211 | 0.0 | 1.7 | 0.00 | 0.00 | 0.00 | 57 | 1012.7 |
| 20260504233058 | 74 | 219 | 0.0 | 3.5 | 0.00 | 0.00 | 0.00 | 55 | 1012.6 |
| 20260504231536 | 74 | 214 | 1.7 | 5.2 | 0.00 | 0.00 | 0.00 | 53 | 1012.6 |
| 20260504230011 | 74 | 220 | 1.7 | 6.1 | 0.00 | 0.00 | 0.00 | 51 | 1012.6 |
| 20260504224559 | 76 | 205 | 0.0 | 6.1 | 0.00 | 0.00 | 0.00 | 49 | 1012.6 |
| 20260504223041 | 76 | 228 | 2.6 | 8.7 | 0.00 | 0.00 | 0.00 | 49 | 1012.6 |
| 20260504221506 | 76 | 205 | 0.9 | 8.7 | 0.00 | 0.00 | 0.00 | 51 | 1012.6 |
| 20260504220056 | 77 | 184 | 1.7 | 8.7 | 0.00 | 0.00 | 0.00 | 49 | 1012.6 |
| 20260504214525 | 77 | 221 | 2.6 | 7.8 | 0.00 | 0.00 | 0.00 | 50 | 1012.7 |
| 20260504213035 | 77 | 151 | 0.9 | 5.2 | 0.00 | 0.00 | 0.00 | 51 | 1012.6 |
| 20260504211556 | 78 | 201 | 3.5 | 9.6 | 0.00 | 0.00 | 0.00 | 49 | 1012.7 |
| 20260504210003 | 78 | 248 | 2.6 | 6.1 | 0.00 | 0.00 | 0.00 | 50 | 1012.9 |
| 20260504204523 | 79 | 234 | 0.9 | 3.5 | 0.00 | 0.00 | 0.00 | 48 | 1013.1 |
| 20260504203035 | 78 | 200 | 0.0 | 7.0 | 0.00 | 0.00 | 0.00 | 50 | 1013.2 |
| 20260504201606 | 78 | 190 | 0.0 | 7.0 | 0.00 | 0.00 | 0.00 | 49 | 1013.4 |
| 20260504200005 | 78 | 124 | 1.7 | 6.1 | 0.00 | 0.00 | 0.00 | 51 | 1013.6 |
| 20260504194524 | 78 | 281 | 2.6 | 6.1 | 0.00 | 0.00 | 0.00 | 52 | 1013.7 |